sensor_id;sensor_type;location;lat;lon;timestamp;P1;durP1;ratioP1;P2;durP2;ratioP2
74512;SDS011;62992;52.052;8.550;2022-09-13T00:01:23;4.65;;;3.50;;
74512;SDS011;62992;52.052;8.550;2022-09-13T00:03:49;4.72;;;3.40;;
74512;SDS011;62992;52.052;8.550;2022-09-13T00:06:16;5.80;;;3.50;;
74512;SDS011;62992;52.052;8.550;2022-09-13T00:08:43;5.07;;;3.45;;
74512;SDS011;62992;52.052;8.550;2022-09-13T00:11:14;6.65;;;3.85;;
74512;SDS011;62992;52.052;8.550;2022-09-13T00:13:44;5.00;;;3.50;;
74512;SDS011;62992;52.052;8.550;2022-09-13T00:16:11;4.47;;;3.20;;
74512;SDS011;62992;52.052;8.550;2022-09-13T00:18:38;4.85;;;3.60;;
74512;SDS011;62992;52.052;8.550;2022-09-13T00:21:05;5.00;;;3.53;;
74512;SDS011;62992;52.052;8.550;2022-09-13T00:23:33;4.90;;;3.47;;
74512;SDS011;62992;52.052;8.550;2022-09-13T00:26:03;4.88;;;3.60;;
74512;SDS011;62992;52.052;8.550;2022-09-13T00:28:30;4.50;;;3.40;;
74512;SDS011;62992;52.052;8.550;2022-09-13T00:30:58;5.05;;;3.40;;
74512;SDS011;62992;52.052;8.550;2022-09-13T00:33:27;4.32;;;2.97;;
74512;SDS011;62992;52.052;8.550;2022-09-13T00:35:53;5.97;;;3.53;;
74512;SDS011;62992;52.052;8.550;2022-09-13T00:38:18;3.97;;;3.22;;
74512;SDS011;62992;52.052;8.550;2022-09-13T00:40:44;4.80;;;3.75;;
74512;SDS011;62992;52.052;8.550;2022-09-13T00:43:17;4.13;;;3.22;;
74512;SDS011;62992;52.052;8.550;2022-09-13T00:45:50;6.00;;;3.30;;
74512;SDS011;62992;52.052;8.550;2022-09-13T00:48:18;5.68;;;3.90;;
74512;SDS011;62992;52.052;8.550;2022-09-13T01:00:26;5.28;;;3.47;;
74512;SDS011;62992;52.052;8.550;2022-09-13T01:02:53;5.20;;;3.50;;
74512;SDS011;62992;52.052;8.550;2022-09-13T01:05:23;4.88;;;3.38;;
74512;SDS011;62992;52.052;8.550;2022-09-13T01:07:52;5.78;;;3.60;;
74512;SDS011;62992;52.052;8.550;2022-09-13T01:10:19;6.20;;;3.90;;
74512;SDS011;62992;52.052;8.550;2022-09-13T01:15:38;4.90;;;3.65;;
74512;SDS011;62992;52.052;8.550;2022-09-13T01:18:04;4.45;;;3.72;;
74512;SDS011;62992;52.052;8.550;2022-09-13T01:31:53;4.70;;;3.42;;
74512;SDS011;62992;52.052;8.550;2022-09-13T01:37:21;5.43;;;3.50;;
74512;SDS011;62992;52.052;8.550;2022-09-13T01:48:14;4.95;;;3.50;;
74512;SDS011;62992;52.052;8.550;2022-09-13T01:50:42;5.00;;;3.35;;
74512;SDS011;62992;52.052;8.550;2022-09-13T01:53:21;4.95;;;3.50;;
74512;SDS011;62992;52.052;8.550;2022-09-13T01:58:27;6.03;;;3.42;;
74512;SDS011;62992;52.052;8.550;2022-09-13T02:01:16;5.20;;;3.55;;
74512;SDS011;62992;52.052;8.550;2022-09-13T02:03:51;3.88;;;3.17;;
74512;SDS011;62992;52.052;8.550;2022-09-13T02:06:28;5.55;;;3.60;;
74512;SDS011;62992;52.052;8.550;2022-09-13T02:08:59;4.80;;;3.38;;
74512;SDS011;62992;52.052;8.550;2022-09-13T02:11:28;5.60;;;3.15;;
74512;SDS011;62992;52.052;8.550;2022-09-13T02:14:08;4.35;;;3.25;;
74512;SDS011;62992;52.052;8.550;2022-09-13T02:16:40;3.38;;;2.88;;
74512;SDS011;62992;52.052;8.550;2022-09-13T02:19:14;6.03;;;3.50;;
74512;SDS011;62992;52.052;8.550;2022-09-13T02:22:00;4.00;;;2.97;;
74512;SDS011;62992;52.052;8.550;2022-09-13T02:24:30;4.82;;;3.47;;
74512;SDS011;62992;52.052;8.550;2022-09-13T02:26:58;5.63;;;2.92;;
74512;SDS011;62992;52.052;8.550;2022-09-13T02:29:35;4.63;;;3.22;;
74512;SDS011;62992;52.052;8.550;2022-09-13T02:32:15;4.43;;;3.78;;
74512;SDS011;62992;52.052;8.550;2022-09-13T02:34:52;3.47;;;2.85;;
74512;SDS011;62992;52.052;8.550;2022-09-13T02:37:22;4.78;;;3.20;;
74512;SDS011;62992;52.052;8.550;2022-09-13T02:39:52;3.65;;;3.17;;
74512;SDS011;62992;52.052;8.550;2022-09-13T02:42:22;4.97;;;3.40;;
74512;SDS011;62992;52.052;8.550;2022-09-13T02:44:54;5.28;;;3.03;;
74512;SDS011;62992;52.052;8.550;2022-09-13T02:58:25;5.55;;;3.22;;
74512;SDS011;62992;52.052;8.550;2022-09-13T03:00:58;4.15;;;3.30;;
74512;SDS011;62992;52.052;8.550;2022-09-13T03:03:24;4.97;;;3.03;;
74512;SDS011;62992;52.052;8.550;2022-09-13T03:05:50;5.20;;;3.60;;
74512;SDS011;62992;52.052;8.550;2022-09-13T03:08:16;4.72;;;3.40;;
74512;SDS011;62992;52.052;8.550;2022-09-13T03:13:58;7.25;;;3.15;;
74512;SDS011;62992;52.052;8.550;2022-09-13T03:19:22;5.03;;;3.47;;
74512;SDS011;62992;52.052;8.550;2022-09-13T03:25:07;5.03;;;3.50;;
74512;SDS011;62992;52.052;8.550;2022-09-13T03:30:06;5.50;;;3.70;;
74512;SDS011;62992;52.052;8.550;2022-09-13T03:35:11;3.47;;;2.70;;
74512;SDS011;62992;52.052;8.550;2022-09-13T03:40:34;4.45;;;2.75;;
74512;SDS011;62992;52.052;8.550;2022-09-13T03:45:49;3.83;;;2.95;;
74512;SDS011;62992;52.052;8.550;2022-09-13T03:48:18;3.95;;;2.80;;
74512;SDS011;62992;52.052;8.550;2022-09-13T03:50:46;5.20;;;3.03;;
74512;SDS011;62992;52.052;8.550;2022-09-13T03:53:14;4.80;;;3.20;;
74512;SDS011;62992;52.052;8.550;2022-09-13T03:55:45;4.35;;;2.97;;
74512;SDS011;62992;52.052;8.550;2022-09-13T03:58:11;3.78;;;2.75;;
74512;SDS011;62992;52.052;8.550;2022-09-13T04:00:38;4.80;;;3.22;;
74512;SDS011;62992;52.052;8.550;2022-09-13T04:03:05;5.25;;;3.35;;
74512;SDS011;62992;52.052;8.550;2022-09-13T04:05:30;5.32;;;3.00;;
74512;SDS011;62992;52.052;8.550;2022-09-13T04:07:58;5.32;;;3.47;;
74512;SDS011;62992;52.052;8.550;2022-09-13T04:10:23;4.07;;;2.97;;
74512;SDS011;62992;52.052;8.550;2022-09-13T04:12:49;6.15;;;3.15;;
74512;SDS011;62992;52.052;8.550;2022-09-13T04:15:16;5.05;;;2.95;;
74512;SDS011;62992;52.052;8.550;2022-09-13T04:17:42;4.88;;;3.22;;
74512;SDS011;62992;52.052;8.550;2022-09-13T04:20:07;4.30;;;3.17;;
74512;SDS011;62992;52.052;8.550;2022-09-13T04:22:33;5.00;;;3.45;;
74512;SDS011;62992;52.052;8.550;2022-09-13T04:24:59;3.42;;;3.10;;
74512;SDS011;62992;52.052;8.550;2022-09-13T04:27:25;4.43;;;3.22;;
74512;SDS011;62992;52.052;8.550;2022-09-13T04:29:50;4.60;;;3.50;;
74512;SDS011;62992;52.052;8.550;2022-09-13T04:32:16;6.00;;;3.40;;
74512;SDS011;62992;52.052;8.550;2022-09-13T04:34:41;4.35;;;3.47;;
74512;SDS011;62992;52.052;8.550;2022-09-13T04:37:07;4.15;;;3.05;;
74512;SDS011;62992;52.052;8.550;2022-09-13T04:39:33;4.45;;;3.30;;
74512;SDS011;62992;52.052;8.550;2022-09-13T04:41:58;4.90;;;3.17;;
74512;SDS011;62992;52.052;8.550;2022-09-13T04:44:24;5.68;;;3.28;;
74512;SDS011;62992;52.052;8.550;2022-09-13T04:46:50;4.72;;;3.25;;
74512;SDS011;62992;52.052;8.550;2022-09-13T04:49:16;5.15;;;3.55;;
74512;SDS011;62992;52.052;8.550;2022-09-13T04:51:44;6.05;;;3.45;;
74512;SDS011;62992;52.052;8.550;2022-09-13T04:54:09;5.15;;;3.38;;
74512;SDS011;62992;52.052;8.550;2022-09-13T04:56:36;6.40;;;3.90;;
74512;SDS011;62992;52.052;8.550;2022-09-13T04:59:02;6.35;;;3.78;;
74512;SDS011;62992;52.052;8.550;2022-09-13T05:01:28;5.43;;;3.20;;
74512;SDS011;62992;52.052;8.550;2022-09-13T05:03:54;5.80;;;3.47;;
74512;SDS011;62992;52.052;8.550;2022-09-13T05:06:19;6.97;;;3.53;;
74512;SDS011;62992;52.052;8.550;2022-09-13T05:08:50;6.43;;;3.63;;
74512;SDS011;62992;52.052;8.550;2022-09-13T05:11:19;5.43;;;3.17;;
74512;SDS011;62992;52.052;8.550;2022-09-13T05:13:52;8.30;;;3.25;;
74512;SDS011;62992;52.052;8.550;2022-09-13T05:16:23;4.63;;;3.35;;
74512;SDS011;62992;52.052;8.550;2022-09-13T05:18:51;4.80;;;3.03;;
74512;SDS011;62992;52.052;8.550;2022-09-13T05:21:17;6.85;;;3.03;;
74512;SDS011;62992;52.052;8.550;2022-09-13T05:23:44;4.53;;;3.55;;
74512;SDS011;62992;52.052;8.550;2022-09-13T05:26:12;5.22;;;3.17;;
74512;SDS011;62992;52.052;8.550;2022-09-13T05:28:37;3.88;;;3.10;;
74512;SDS011;62992;52.052;8.550;2022-09-13T05:31:07;4.72;;;3.30;;
74512;SDS011;62992;52.052;8.550;2022-09-13T05:33:38;5.50;;;3.70;;
74512;SDS011;62992;52.052;8.550;2022-09-13T05:36:04;5.13;;;3.22;;
74512;SDS011;62992;52.052;8.550;2022-09-13T05:38:30;6.05;;;3.05;;
74512;SDS011;62992;52.052;8.550;2022-09-13T05:40:57;6.15;;;3.15;;
74512;SDS011;62992;52.052;8.550;2022-09-13T05:43:28;5.25;;;3.17;;
74512;SDS011;62992;52.052;8.550;2022-09-13T05:48:27;4.35;;;3.10;;
74512;SDS011;62992;52.052;8.550;2022-09-13T05:50:53;5.97;;;3.13;;
74512;SDS011;62992;52.052;8.550;2022-09-13T05:53:19;8.20;;;3.55;;
74512;SDS011;62992;52.052;8.550;2022-09-13T05:55:44;4.07;;;2.70;;
74512;SDS011;62992;52.052;8.550;2022-09-13T05:58:10;3.97;;;2.75;;
74512;SDS011;62992;52.052;8.550;2022-09-13T06:00:35;4.28;;;3.20;;
74512;SDS011;62992;52.052;8.550;2022-09-13T06:03:01;6.13;;;3.00;;
74512;SDS011;62992;52.052;8.550;2022-09-13T06:05:27;5.57;;;3.42;;
74512;SDS011;62992;52.052;8.550;2022-09-13T06:07:52;4.93;;;3.00;;
74512;SDS011;62992;52.052;8.550;2022-09-13T06:10:18;5.40;;;3.15;;
74512;SDS011;62992;52.052;8.550;2022-09-13T06:12:44;6.65;;;3.05;;
74512;SDS011;62992;52.052;8.550;2022-09-13T06:15:10;5.18;;;2.88;;
74512;SDS011;62992;52.052;8.550;2022-09-13T06:17:37;7.10;;;2.70;;
74512;SDS011;62992;52.052;8.550;2022-09-13T06:20:02;4.88;;;2.72;;
74512;SDS011;62992;52.052;8.550;2022-09-13T06:22:29;4.88;;;2.92;;
74512;SDS011;62992;52.052;8.550;2022-09-13T06:24:57;8.38;;;3.17;;
74512;SDS011;62992;52.052;8.550;2022-09-13T06:27:23;4.93;;;2.92;;
74512;SDS011;62992;52.052;8.550;2022-09-13T06:29:49;5.10;;;3.35;;
74512;SDS011;62992;52.052;8.550;2022-09-13T06:32:14;4.47;;;3.25;;
74512;SDS011;62992;52.052;8.550;2022-09-13T06:34:40;4.13;;;2.83;;
74512;SDS011;62992;52.052;8.550;2022-09-13T06:37:06;9.63;;;3.58;;
74512;SDS011;62992;52.052;8.550;2022-09-13T06:39:32;4.20;;;3.10;;
74512;SDS011;62992;52.052;8.550;2022-09-13T06:41:58;5.70;;;3.75;;
74512;SDS011;62992;52.052;8.550;2022-09-13T06:44:24;5.47;;;3.10;;
74512;SDS011;62992;52.052;8.550;2022-09-13T06:46:49;4.68;;;3.10;;
74512;SDS011;62992;52.052;8.550;2022-09-13T06:49:15;5.57;;;3.33;;
74512;SDS011;62992;52.052;8.550;2022-09-13T06:51:41;6.00;;;3.60;;
74512;SDS011;62992;52.052;8.550;2022-09-13T06:54:06;7.70;;;3.70;;
74512;SDS011;62992;52.052;8.550;2022-09-13T06:56:36;4.90;;;3.20;;
74512;SDS011;62992;52.052;8.550;2022-09-13T06:59:03;5.20;;;3.45;;
74512;SDS011;62992;52.052;8.550;2022-09-13T07:01:41;4.85;;;3.50;;
74512;SDS011;62992;52.052;8.550;2022-09-13T07:04:08;4.63;;;3.50;;
74512;SDS011;62992;52.052;8.550;2022-09-13T07:06:39;4.68;;;3.25;;
74512;SDS011;62992;52.052;8.550;2022-09-13T07:09:07;6.60;;;3.60;;
74512;SDS011;62992;52.052;8.550;2022-09-13T07:11:38;5.97;;;3.55;;
74512;SDS011;62992;52.052;8.550;2022-09-13T07:14:05;4.47;;;3.15;;
74512;SDS011;62992;52.052;8.550;2022-09-13T07:16:33;5.90;;;3.92;;
74512;SDS011;62992;52.052;8.550;2022-09-13T07:19:01;6.72;;;3.80;;
74512;SDS011;62992;52.052;8.550;2022-09-13T07:21:31;7.60;;;4.40;;
74512;SDS011;62992;52.052;8.550;2022-09-13T07:23:58;6.05;;;4.43;;
74512;SDS011;62992;52.052;8.550;2022-09-13T07:26:25;7.30;;;4.55;;
74512;SDS011;62992;52.052;8.550;2022-09-13T07:28:52;6.85;;;4.18;;
74512;SDS011;62992;52.052;8.550;2022-09-13T07:31:20;7.68;;;4.25;;
74512;SDS011;62992;52.052;8.550;2022-09-13T07:33:52;5.70;;;4.15;;
74512;SDS011;62992;52.052;8.550;2022-09-13T07:36:19;5.38;;;4.60;;
74512;SDS011;62992;52.052;8.550;2022-09-13T07:38:45;6.35;;;4.35;;
74512;SDS011;62992;52.052;8.550;2022-09-13T07:41:11;7.30;;;4.43;;
74512;SDS011;62992;52.052;8.550;2022-09-13T07:43:40;9.02;;;4.90;;
74512;SDS011;62992;52.052;8.550;2022-09-13T07:46:10;6.82;;;4.32;;
74512;SDS011;62992;52.052;8.550;2022-09-13T07:48:38;7.43;;;4.80;;
74512;SDS011;62992;52.052;8.550;2022-09-13T07:51:12;7.28;;;4.80;;
74512;SDS011;62992;52.052;8.550;2022-09-13T07:53:40;9.40;;;5.20;;
74512;SDS011;62992;52.052;8.550;2022-09-13T07:56:10;6.80;;;4.65;;
74512;SDS011;62992;52.052;8.550;2022-09-13T07:58:38;8.75;;;4.82;;
74512;SDS011;62992;52.052;8.550;2022-09-13T08:03:44;7.22;;;5.47;;
74512;SDS011;62992;52.052;8.550;2022-09-13T08:06:21;6.70;;;5.18;;
74512;SDS011;62992;52.052;8.550;2022-09-13T08:08:47;8.02;;;5.15;;
74512;SDS011;62992;52.052;8.550;2022-09-13T08:11:15;8.35;;;5.18;;
74512;SDS011;62992;52.052;8.550;2022-09-13T08:13:43;8.88;;;5.40;;
74512;SDS011;62992;52.052;8.550;2022-09-13T08:16:10;9.70;;;5.47;;
74512;SDS011;62992;52.052;8.550;2022-09-13T08:18:35;9.20;;;6.00;;
74512;SDS011;62992;52.052;8.550;2022-09-13T08:21:01;8.57;;;5.72;;
74512;SDS011;62992;52.052;8.550;2022-09-13T08:23:27;10.73;;;5.38;;
74512;SDS011;62992;52.052;8.550;2022-09-13T08:25:53;9.95;;;6.18;;
74512;SDS011;62992;52.052;8.550;2022-09-13T08:28:19;9.68;;;6.20;;
74512;SDS011;62992;52.052;8.550;2022-09-13T08:30:45;10.18;;;6.32;;
74512;SDS011;62992;52.052;8.550;2022-09-13T08:33:12;10.07;;;6.20;;
74512;SDS011;62992;52.052;8.550;2022-09-13T08:35:38;9.93;;;6.25;;
74512;SDS011;62992;52.052;8.550;2022-09-13T08:38:05;9.55;;;6.10;;
74512;SDS011;62992;52.052;8.550;2022-09-13T08:40:33;10.35;;;6.60;;
74512;SDS011;62992;52.052;8.550;2022-09-13T08:45:59;10.38;;;7.22;;
74512;SDS011;62992;52.052;8.550;2022-09-13T08:48:45;12.23;;;7.32;;
74512;SDS011;62992;52.052;8.550;2022-09-13T08:51:30;12.48;;;7.22;;
74512;SDS011;62992;52.052;8.550;2022-09-13T08:53:59;10.75;;;7.28;;
74512;SDS011;62992;52.052;8.550;2022-09-13T09:02:25;13.77;;;8.40;;
74512;SDS011;62992;52.052;8.550;2022-09-13T09:05:18;11.55;;;7.53;;
74512;SDS011;62992;52.052;8.550;2022-09-13T09:07:51;18.17;;;8.32;;
74512;SDS011;62992;52.052;8.550;2022-09-13T09:10:25;14.15;;;7.97;;
74512;SDS011;62992;52.052;8.550;2022-09-13T09:15:48;11.65;;;8.15;;
74512;SDS011;62992;52.052;8.550;2022-09-13T09:18:23;12.10;;;7.82;;
74512;SDS011;62992;52.052;8.550;2022-09-13T09:20:54;14.73;;;7.43;;
74512;SDS011;62992;52.052;8.550;2022-09-13T09:23:40;12.52;;;6.88;;
74512;SDS011;62992;52.052;8.550;2022-09-13T09:26:24;12.18;;;6.88;;
74512;SDS011;62992;52.052;8.550;2022-09-13T09:39:49;11.80;;;6.78;;
74512;SDS011;62992;52.052;8.550;2022-09-13T09:42:28;9.27;;;6.40;;
74512;SDS011;62992;52.052;8.550;2022-09-13T09:47:51;10.00;;;5.93;;
74512;SDS011;62992;52.052;8.550;2022-09-13T09:50:20;10.98;;;6.75;;
74512;SDS011;62992;52.052;8.550;2022-09-13T09:58:44;9.82;;;6.90;;
74512;SDS011;62992;52.052;8.550;2022-09-13T10:01:23;11.18;;;7.03;;
74512;SDS011;62992;52.052;8.550;2022-09-13T10:06:32;9.18;;;6.45;;
74512;SDS011;62992;52.052;8.550;2022-09-13T10:09:20;11.27;;;6.32;;
74512;SDS011;62992;52.052;8.550;2022-09-13T10:11:49;11.10;;;6.47;;
74512;SDS011;62992;52.052;8.550;2022-09-13T10:19:52;10.55;;;6.15;;
74512;SDS011;62992;52.052;8.550;2022-09-13T10:22:18;9.07;;;6.30;;
74512;SDS011;62992;52.052;8.550;2022-09-13T10:24:44;9.10;;;6.68;;
74512;SDS011;62992;52.052;8.550;2022-09-13T10:27:31;9.25;;;5.95;;
74512;SDS011;62992;52.052;8.550;2022-09-13T10:29:59;11.10;;;6.97;;
74512;SDS011;62992;52.052;8.550;2022-09-13T10:32:29;8.00;;;5.60;;
74512;SDS011;62992;52.052;8.550;2022-09-13T10:34:56;8.18;;;5.43;;
74512;SDS011;62992;52.052;8.550;2022-09-13T10:37:40;8.25;;;6.22;;
74512;SDS011;62992;52.052;8.550;2022-09-13T10:40:18;9.95;;;6.18;;
74512;SDS011;62992;52.052;8.550;2022-09-13T10:42:56;9.38;;;6.28;;
74512;SDS011;62992;52.052;8.550;2022-09-13T10:45:26;9.77;;;5.47;;
74512;SDS011;62992;52.052;8.550;2022-09-13T10:48:03;9.63;;;5.60;;
74512;SDS011;62992;52.052;8.550;2022-09-13T10:50:38;10.20;;;5.45;;
74512;SDS011;62992;52.052;8.550;2022-09-13T10:53:04;9.75;;;5.60;;
74512;SDS011;62992;52.052;8.550;2022-09-13T10:55:59;7.70;;;4.57;;
74512;SDS011;62992;52.052;8.550;2022-09-13T10:58:26;7.78;;;5.00;;
74512;SDS011;62992;52.052;8.550;2022-09-13T11:03:51;7.50;;;4.78;;
74512;SDS011;62992;52.052;8.550;2022-09-13T11:09:12;5.25;;;4.55;;
74512;SDS011;62992;52.052;8.550;2022-09-13T11:11:59;7.97;;;5.50;;
74512;SDS011;62992;52.052;8.550;2022-09-13T11:14:46;9.70;;;5.85;;
74512;SDS011;62992;52.052;8.550;2022-09-13T11:17:34;8.50;;;6.13;;
74512;SDS011;62992;52.052;8.550;2022-09-13T11:26:12;10.70;;;6.90;;
74512;SDS011;62992;52.052;8.550;2022-09-13T11:37:10;8.13;;;4.38;;
74512;SDS011;62992;52.052;8.550;2022-09-13T11:39:37;8.95;;;5.57;;
74512;SDS011;62992;52.052;8.550;2022-09-13T11:55:37;10.10;;;6.15;;
74512;SDS011;62992;52.052;8.550;2022-09-13T11:58:14;8.43;;;5.38;;
74512;SDS011;62992;52.052;8.550;2022-09-13T12:00:56;7.25;;;5.60;;
74512;SDS011;62992;52.052;8.550;2022-09-13T12:08:46;10.57;;;6.65;;
74512;SDS011;62992;52.052;8.550;2022-09-13T12:11:32;10.95;;;6.50;;
74512;SDS011;62992;52.052;8.550;2022-09-13T12:14:02;12.88;;;7.25;;
74512;SDS011;62992;52.052;8.550;2022-09-13T12:16:43;11.43;;;7.47;;
74512;SDS011;62992;52.052;8.550;2022-09-13T12:19:21;10.40;;;6.38;;
74512;SDS011;62992;52.052;8.550;2022-09-13T12:21:52;10.07;;;6.78;;
74512;SDS011;62992;52.052;8.550;2022-09-13T12:24:41;9.57;;;6.63;;
74512;SDS011;62992;52.052;8.550;2022-09-13T12:30:15;8.80;;;6.20;;
74512;SDS011;62992;52.052;8.550;2022-09-13T12:32:43;8.65;;;5.85;;
74512;SDS011;62992;52.052;8.550;2022-09-13T12:38:03;8.75;;;6.00;;
74512;SDS011;62992;52.052;8.550;2022-09-13T12:40:49;9.70;;;5.80;;
74512;SDS011;62992;52.052;8.550;2022-09-13T12:48:48;11.43;;;7.15;;
74512;SDS011;62992;52.052;8.550;2022-09-13T13:05:17;7.00;;;5.32;;
74512;SDS011;62992;52.052;8.550;2022-09-13T13:07:48;8.00;;;5.30;;
74512;SDS011;62992;52.052;8.550;2022-09-13T13:10:31;5.65;;;3.95;;
74512;SDS011;62992;52.052;8.550;2022-09-13T13:13:08;8.30;;;4.53;;
74512;SDS011;62992;52.052;8.550;2022-09-13T13:46:53;4.93;;;3.03;;
74512;SDS011;62992;52.052;8.550;2022-09-13T13:57:28;4.43;;;3.35;;
74512;SDS011;62992;52.052;8.550;2022-09-13T14:13:50;5.00;;;4.18;;
74512;SDS011;62992;52.052;8.550;2022-09-13T14:21:43;4.97;;;3.88;;
74512;SDS011;62992;52.052;8.550;2022-09-13T14:26:49;5.93;;;3.60;;
74512;SDS011;62992;52.052;8.550;2022-09-13T14:29:19;6.78;;;3.75;;
74512;SDS011;62992;52.052;8.550;2022-09-13T14:31:47;4.80;;;3.90;;
74512;SDS011;62992;52.052;8.550;2022-09-13T14:34:26;5.43;;;3.80;;
74512;SDS011;62992;52.052;8.550;2022-09-13T14:36:57;6.47;;;3.78;;
74512;SDS011;62992;52.052;8.550;2022-09-13T14:39:25;4.85;;;3.67;;
74512;SDS011;62992;52.052;8.550;2022-09-13T14:42:05;5.40;;;3.20;;
74512;SDS011;62992;52.052;8.550;2022-09-13T14:44:35;3.10;;;2.80;;
74512;SDS011;62992;52.052;8.550;2022-09-13T14:47:05;3.83;;;2.63;;
74512;SDS011;62992;52.052;8.550;2022-09-13T14:49:54;4.60;;;2.78;;
74512;SDS011;62992;52.052;8.550;2022-09-13T14:52:36;5.50;;;2.35;;
74512;SDS011;62992;52.052;8.550;2022-09-13T14:55:35;4.00;;;2.03;;
74512;SDS011;62992;52.052;8.550;2022-09-13T14:58:06;4.50;;;2.50;;
74512;SDS011;62992;52.052;8.550;2022-09-13T15:00:48;13.02;;;2.47;;
74512;SDS011;62992;52.052;8.550;2022-09-13T15:03:27;3.45;;;1.83;;
74512;SDS011;62992;52.052;8.550;2022-09-13T15:05:53;4.88;;;2.28;;
74512;SDS011;62992;52.052;8.550;2022-09-13T15:08:44;2.30;;;1.58;;
74512;SDS011;62992;52.052;8.550;2022-09-13T15:11:13;3.53;;;1.17;;
74512;SDS011;62992;52.052;8.550;2022-09-13T15:13:40;2.13;;;1.10;;
74512;SDS011;62992;52.052;8.550;2022-09-13T15:16:24;21.90;;;2.17;;
74512;SDS011;62992;52.052;8.550;2022-09-13T15:19:14;5.95;;;1.10;;
74512;SDS011;62992;52.052;8.550;2022-09-13T15:21:50;2.78;;;1.10;;
74512;SDS011;62992;52.052;8.550;2022-09-13T15:24:18;3.15;;;1.10;;
74512;SDS011;62992;52.052;8.550;2022-09-13T15:26:59;3.35;;;1.13;;
74512;SDS011;62992;52.052;8.550;2022-09-13T15:29:30;1.55;;;0.80;;
74512;SDS011;62992;52.052;8.550;2022-09-13T15:31:59;2.05;;;1.02;;
74512;SDS011;62992;52.052;8.550;2022-09-13T15:34:26;4.05;;;0.85;;
74512;SDS011;62992;52.052;8.550;2022-09-13T15:39:50;2.80;;;0.82;;
74512;SDS011;62992;52.052;8.550;2022-09-13T15:42:38;2.45;;;0.90;;
74512;SDS011;62992;52.052;8.550;2022-09-13T15:45:03;8.98;;;1.30;;
74512;SDS011;62992;52.052;8.550;2022-09-13T15:47:29;11.45;;;1.10;;
74512;SDS011;62992;52.052;8.550;2022-09-13T15:49:55;2.08;;;0.70;;
74512;SDS011;62992;52.052;8.550;2022-09-13T15:52:22;0.70;;;0.60;;
74512;SDS011;62992;52.052;8.550;2022-09-13T15:54:48;2.47;;;0.88;;
74512;SDS011;62992;52.052;8.550;2022-09-13T15:59:45;0.85;;;0.52;;
74512;SDS011;62992;52.052;8.550;2022-09-13T16:04:49;0.88;;;0.70;;
74512;SDS011;62992;52.052;8.550;2022-09-13T16:07:15;3.05;;;0.77;;
74512;SDS011;62992;52.052;8.550;2022-09-13T16:09:42;2.25;;;0.80;;
74512;SDS011;62992;52.052;8.550;2022-09-13T16:12:09;2.60;;;0.90;;
74512;SDS011;62992;52.052;8.550;2022-09-13T16:14:34;1.05;;;0.65;;
74512;SDS011;62992;52.052;8.550;2022-09-13T16:17:02;1.63;;;1.00;;
74512;SDS011;62992;52.052;8.550;2022-09-13T16:19:36;2.78;;;0.90;;
74512;SDS011;62992;52.052;8.550;2022-09-13T16:22:01;2.60;;;1.00;;
74512;SDS011;62992;52.052;8.550;2022-09-13T16:24:27;1.70;;;0.70;;
74512;SDS011;62992;52.052;8.550;2022-09-13T16:26:53;1.30;;;0.77;;
74512;SDS011;62992;52.052;8.550;2022-09-13T16:29:19;1.45;;;0.88;;
74512;SDS011;62992;52.052;8.550;2022-09-13T16:31:45;3.75;;;0.90;;
74512;SDS011;62992;52.052;8.550;2022-09-13T16:34:10;3.45;;;0.90;;
74512;SDS011;62992;52.052;8.550;2022-09-13T16:36:36;1.80;;;0.80;;
74512;SDS011;62992;52.052;8.550;2022-09-13T16:39:02;1.67;;;0.82;;
74512;SDS011;62992;52.052;8.550;2022-09-13T16:41:28;2.95;;;1.00;;
74512;SDS011;62992;52.052;8.550;2022-09-13T16:43:54;2.53;;;1.10;;
74512;SDS011;62992;52.052;8.550;2022-09-13T16:46:20;2.35;;;0.90;;
74512;SDS011;62992;52.052;8.550;2022-09-13T16:48:51;1.42;;;0.80;;
74512;SDS011;62992;52.052;8.550;2022-09-13T16:51:18;4.47;;;0.90;;
74512;SDS011;62992;52.052;8.550;2022-09-13T16:53:44;3.88;;;1.48;;
74512;SDS011;62992;52.052;8.550;2022-09-13T16:56:12;3.22;;;0.93;;
74512;SDS011;62992;52.052;8.550;2022-09-13T16:58:41;1.20;;;0.70;;
74512;SDS011;62992;52.052;8.550;2022-09-13T17:01:09;2.67;;;0.93;;
74512;SDS011;62992;52.052;8.550;2022-09-13T17:03:36;3.50;;;0.90;;
74512;SDS011;62992;52.052;8.550;2022-09-13T17:06:03;2.85;;;1.10;;
74512;SDS011;62992;52.052;8.550;2022-09-13T17:08:30;2.42;;;1.13;;
74512;SDS011;62992;52.052;8.550;2022-09-13T17:10:57;3.95;;;1.10;;
74512;SDS011;62992;52.052;8.550;2022-09-13T17:13:23;1.42;;;0.80;;
74512;SDS011;62992;52.052;8.550;2022-09-13T17:15:48;6.32;;;1.42;;
74512;SDS011;62992;52.052;8.550;2022-09-13T17:18:15;2.35;;;0.82;;
74512;SDS011;62992;52.052;8.550;2022-09-13T17:20:44;2.63;;;0.82;;
74512;SDS011;62992;52.052;8.550;2022-09-13T17:23:11;1.98;;;0.90;;
74512;SDS011;62992;52.052;8.550;2022-09-13T17:25:56;2.78;;;1.05;;
74512;SDS011;62992;52.052;8.550;2022-09-13T17:28:21;4.72;;;1.80;;
74512;SDS011;62992;52.052;8.550;2022-09-13T17:30:47;1.77;;;1.00;;
74512;SDS011;62992;52.052;8.550;2022-09-13T17:33:12;2.35;;;0.90;;
74512;SDS011;62992;52.052;8.550;2022-09-13T17:35:38;3.95;;;0.90;;
74512;SDS011;62992;52.052;8.550;2022-09-13T17:38:04;1.60;;;0.88;;
74512;SDS011;62992;52.052;8.550;2022-09-13T17:40:30;1.55;;;1.02;;
74512;SDS011;62992;52.052;8.550;2022-09-13T17:42:57;2.70;;;1.00;;
74512;SDS011;62992;52.052;8.550;2022-09-13T17:45:23;3.15;;;1.10;;
74512;SDS011;62992;52.052;8.550;2022-09-13T17:47:53;1.05;;;0.80;;
74512;SDS011;62992;52.052;8.550;2022-09-13T17:50:20;1.00;;;0.77;;
74512;SDS011;62992;52.052;8.550;2022-09-13T17:52:46;3.10;;;1.10;;
74512;SDS011;62992;52.052;8.550;2022-09-13T17:55:12;3.75;;;1.17;;
74512;SDS011;62992;52.052;8.550;2022-09-13T17:57:38;4.90;;;1.52;;
74512;SDS011;62992;52.052;8.550;2022-09-13T18:00:04;2.60;;;1.10;;
74512;SDS011;62992;52.052;8.550;2022-09-13T18:02:34;1.98;;;1.23;;
74512;SDS011;62992;52.052;8.550;2022-09-13T18:05:00;3.17;;;1.10;;
74512;SDS011;62992;52.052;8.550;2022-09-13T18:07:25;3.05;;;0.95;;
74512;SDS011;62992;52.052;8.550;2022-09-13T18:09:51;1.40;;;0.80;;
74512;SDS011;62992;52.052;8.550;2022-09-13T18:12:16;1.42;;;0.80;;
74512;SDS011;62992;52.052;8.550;2022-09-13T18:14:42;3.33;;;1.00;;
74512;SDS011;62992;52.052;8.550;2022-09-13T18:17:08;3.10;;;1.00;;
74512;SDS011;62992;52.052;8.550;2022-09-13T18:19:36;1.70;;;0.90;;
74512;SDS011;62992;52.052;8.550;2022-09-13T18:22:06;2.42;;;1.10;;
74512;SDS011;62992;52.052;8.550;2022-09-13T18:24:32;2.10;;;0.90;;
74512;SDS011;62992;52.052;8.550;2022-09-13T18:26:59;2.55;;;0.90;;
74512;SDS011;62992;52.052;8.550;2022-09-13T18:29:25;1.45;;;0.80;;
74512;SDS011;62992;52.052;8.550;2022-09-13T18:31:53;2.60;;;0.90;;
74512;SDS011;62992;52.052;8.550;2022-09-13T18:34:18;2.30;;;0.75;;
74512;SDS011;62992;52.052;8.550;2022-09-13T18:36:44;2.58;;;0.90;;
74512;SDS011;62992;52.052;8.550;2022-09-13T18:39:17;2.47;;;1.10;;
74512;SDS011;62992;52.052;8.550;2022-09-13T18:41:44;1.77;;;1.17;;
74512;SDS011;62992;52.052;8.550;2022-09-13T18:44:12;4.00;;;1.30;;
74512;SDS011;62992;52.052;8.550;2022-09-13T18:46:38;2.15;;;1.33;;
74512;SDS011;62992;52.052;8.550;2022-09-13T18:49:04;3.38;;;1.20;;
74512;SDS011;62992;52.052;8.550;2022-09-13T18:51:41;2.95;;;1.48;;
74512;SDS011;62992;52.052;8.550;2022-09-13T18:54:09;2.75;;;1.30;;
74512;SDS011;62992;52.052;8.550;2022-09-13T18:56:37;3.35;;;1.10;;
74512;SDS011;62992;52.052;8.550;2022-09-13T18:59:04;3.80;;;0.90;;
74512;SDS011;62992;52.052;8.550;2022-09-13T19:01:31;2.33;;;1.00;;
74512;SDS011;62992;52.052;8.550;2022-09-13T19:04:03;2.70;;;1.23;;
74512;SDS011;62992;52.052;8.550;2022-09-13T19:06:35;2.67;;;0.90;;
74512;SDS011;62992;52.052;8.550;2022-09-13T19:09:06;6.15;;;1.25;;